Time;durP1;ratioP1;P1;durP2;ratioP2;P2;SDS_P1;SDS_P2;PMS_P1;PMS_P2;Temp;Humidity;BMP_temperature;BMP_pressure;BME280_temperature;BME280_humidity;BME280_pressure;Samples;Min_cycle;Max_cycle;Signal;HPM_P1;HPM_P2
2023/03/28 00:04:16;;;;;;;;;;;;;;;4.41;80.85;102441.84;20512720;28;19930;-59
2023/03/28 00:14:37;;;;;;;;;;;;;;;4.49;81.15;102447.97;20501311;28;20420;-59
2023/03/28 00:24:59;;;;;;;;;;;;;;;4.43;82.70;102452.13;20512786;28;19930;-58
2023/03/28 00:35:20;;;;;;;;;;;;;;;4.40;82.43;102470.84;20505203;28;19930;-58
2023/03/28 00:45:42;;;;;;;;;;;;;;;4.32;83.41;102464.72;20496116;28;19926;-59
2023/03/28 00:56:06;;;;;;;;;;;;;;;4.36;83.09;102471.59;20510097;28;19977;-58
2023/03/28 01:06:31;;;;;;;;;;;;;;;4.28;83.58;102475.72;20499505;28;20606;-59
2023/03/28 01:16:55;;;;;;;;;;;;;;;4.24;84.48;102488.41;20516337;28;20327;-59
2023/03/28 01:27:25;;;;;;;;;;;;;;;4.27;85.26;102504.72;20506045;28;19929;-59
2023/03/28 01:37:53;;;;;;;;;;;;;;;4.35;86.17;102507.44;20503181;28;19922;-59
2023/03/28 01:48:14;;;;;;;;;;;;;;;4.37;86.08;102506.66;20496868;28;19922;-59
2023/03/28 01:58:45;;;;;;;;;;;;;;;4.26;85.75;102513.25;20500719;28;19950;-58
2023/03/28 02:09:08;;;;;;;;;;;;;;;4.16;86.31;102515.56;20517733;28;19922;-58
2023/03/28 02:19:32;;;;;;;;;;;;;;;4.08;86.36;102500.84;20518520;28;20008;-58
2023/03/28 02:29:54;;;;;;;;;;;;;;;4.11;86.27;102502.63;20512283;28;19926;-58
2023/03/28 02:40:18;;;;;;;;;;;;;;;4.12;87.71;102504.34;20511430;28;19930;-58
2023/03/28 02:50:58;;;;;;;;;;;;;;;4.17;86.50;102501.91;20506874;28;19930;-59
2023/03/28 03:01:20;;;;;;;;;;;;;;;4.02;86.55;102492.19;20502487;28;19934;-59
2023/03/28 03:11:42;;;;;;;;;;;;;;;3.89;88.29;102501.28;20511392;28;19926;-59
2023/03/28 03:22:03;;;;;;;;;;;;;;;3.90;86.99;102491.91;20514236;28;19941;-58
2023/03/28 03:32:25;;;;;;;;;;;;;;;3.91;87.69;102498.75;20509565;28;19922;-58
2023/03/28 03:42:46;;;;;;;;;;;;;;;4.01;86.06;102506.66;20506020;28;19926;-58
2023/03/28 03:53:07;;;;;;;;;;;;;;;4.06;87.31;102511.91;20510465;28;20413;-59
2023/03/28 04:03:29;;;;;;;;;;;;;;;4.02;85.57;102525.47;20534796;28;19922;-58
2023/03/28 04:13:51;;;;;;;;;;;;;;;3.85;85.54;102513.94;20530853;28;19941;-59
2023/03/28 04:24:14;;;;;;;;;;;;;;;3.89;85.42;102526.00;20487621;28;19926;-59
2023/03/28 04:34:36;;;;;;;;;;;;;;;3.86;86.17;102528.50;20501924;28;19972;-60
2023/03/28 04:44:59;;;;;;;;;;;;;;;3.72;85.65;102548.63;20508890;28;19922;-59
2023/03/28 04:55:20;;;;;;;;;;;;;;;3.68;85.96;102561.31;20505079;28;19943;-59
2023/03/28 05:05:42;;;;;;;;;;;;;;;3.62;85.66;102566.25;20506445;28;19985;-58
2023/03/28 05:16:03;;;;;;;;;;;;;;;3.63;85.83;102578.22;20498960;28;20377;-58
2023/03/28 05:26:26;;;;;;;;;;;;;;;3.62;85.81;102600.41;20480374;28;20309;-59
2023/03/28 05:36:49;;;;;;;;;;;;;;;3.60;84.94;102603.75;20506365;28;20258;-59
2023/03/28 05:47:11;;;;;;;;;;;;;;;3.59;84.34;102618.22;20519634;28;19927;-59
2023/03/28 05:57:33;;;;;;;;;;;;;;;3.53;84.61;102623.19;20511202;28;19990;-59
2023/03/28 06:07:54;;;;;;;;;;;;;;;3.59;85.63;102607.13;20513641;28;19969;-60
2023/03/28 06:18:16;;;;;;;;;;;;;;;3.75;84.78;102625.50;20524987;28;19985;-59
2023/03/28 06:28:37;;;;;;;;;;;;;;;3.89;84.66;102624.16;20518695;28;19993;-59
2023/03/28 06:39:00;;;;;;;;;;;;;;;3.94;83.39;102627.69;20495119;28;20345;-59
2023/03/28 06:49:21;;;;;;;;;;;;;;;4.01;81.96;102636.44;20502212;28;19950;-59
2023/03/28 06:59:43;;;;;;;;;;;;;;;4.24;82.20;102645.53;20501956;28;20297;-59
2023/03/28 07:10:04;;;;;;;;;;;;;;;4.51;80.55;102647.91;20506405;28;20416;-60
2023/03/28 07:20:26;;;;;;;;;;;;;;;4.59;79.75;102654.97;20509494;28;20310;-59
2023/03/28 07:30:47;;;;;;;;;;;;;;;4.74;78.69;102657.88;20505178;28;20008;-59
2023/03/28 07:41:09;;;;;;;;;;;;;;;4.90;78.53;102670.22;20505556;28;20341;-61
2023/03/28 07:51:31;;;;;;;;;;;;;;;4.90;77.66;102679.63;20504659;28;19977;-59
2023/03/28 08:01:52;;;;;;;;;;;;;;;5.05;77.03;102679.97;20504177;28;19930;-59
2023/03/28 08:12:13;;;;;;;;;;;;;;;5.13;77.08;102683.53;20509081;28;19993;-59
2023/03/28 08:22:35;;;;;;;;;;;;;;;5.31;75.15;102691.63;20506089;28;19976;-59
2023/03/28 08:32:56;;;;;;;;;;;;;;;5.58;74.17;102699.94;20501395;28;20285;-59
2023/03/28 08:43:30;;;;;;;;;;;;;;;5.99;72.16;102687.91;20496441;28;20625;-59
2023/03/28 08:53:59;;;;;;;;;;;;;;;6.23;71.27;102683.22;20497432;28;19927;-59
2023/03/28 09:04:30;;;;;;;;;;;;;;;6.59;68.29;102683.00;20493891;28;19981;-59
2023/03/28 09:15:10;;;;;;;;;;;;;;;6.71;68.12;102684.03;20506992;28;19930;-59
2023/03/28 09:25:41;;;;;;;;;;;;;;;7.00;66.03;102685.34;20486134;28;19989;-59
2023/03/28 09:36:08;;;;;;;;;;;;;;;7.17;62.57;102675.28;20491290;28;19922;-60
2023/03/28 09:46:38;;;;;;;;;;;;;;;7.44;62.07;102679.91;20490959;28;19941;-59
2023/03/28 09:57:01;;;;;;;;;;;;;;;7.68;60.42;102687.94;20504222;28;19988;-60
2023/03/28 10:07:28;;;;;;;;;;;;;;;7.74;62.03;102665.72;20502094;28;19974;-60
2023/03/28 10:17:50;;;;;;;;;;;;;;;7.73;61.41;102668.25;20492595;28;20424;-60
2023/03/28 10:28:16;;;;;;;;;;;;;;;7.76;64.88;102661.44;20503949;28;19923;-59
2023/03/28 10:38:42;;;;;;;;;;;;;;;7.87;60.92;102656.41;20489648;28;19989;-59
2023/03/28 10:49:12;;;;;;;;;;;;;;;7.89;63.55;102659.88;20514694;28;19929;-59
2023/03/28 10:59:52;;;;;;;;;;;;;;;7.79;62.28;102658.03;20492913;28;19930;-61
2023/03/28 11:10:17;;;;;;;;;;;;;;;7.86;64.93;102644.34;20505380;28;19922;-60
2023/03/28 11:20:44;;;;;;;;;;;;;;;8.07;61.93;102649.72;20505349;28;19922;-60
2023/03/28 11:31:11;;;;;;;;;;;;;;;8.11;63.49;102639.44;20510237;28;19924;-60
2023/03/28 11:41:34;;;;;;;;;;;;;;;8.20;61.57;102630.94;20499627;28;19929;-60
2023/03/28 11:52:00;;;;;;;;;;;;;;;8.26;60.62;102628.44;20520115;28;20008;-60
2023/03/28 12:02:42;;;;;;;;;;;;;;;8.37;61.58;102611.34;20497955;28;19930;-60
2023/03/28 12:13:13;;;;;;;;;;;;;;;8.50;60.36;102599.38;20502073;28;19922;-60
2023/03/28 12:23:36;;;;;;;;;;;;;;;8.48;62.83;102591.63;20504714;28;19998;-60
2023/03/28 12:34:06;;;;;;;;;;;;;;;8.44;64.32;102583.88;20480265;28;19926;-61
2023/03/28 12:44:38;;;;;;;;;;;;;;;8.37;64.14;102571.81;20501525;28;19928;-60
2023/03/28 12:55:01;;;;;;;;;;;;;;;8.39;58.86;102558.03;20521211;28;19949;-60
2023/03/28 13:05:26;;;;;;;;;;;;;;;8.36;61.98;102539.13;20490123;28;19930;-60
2023/03/28 13:15:52;;;;;;;;;;;;;;;8.42;63.31;102534.88;20514966;28;19997;-60
2023/03/28 13:26:14;;;;;;;;;;;;;;;8.55;63.39;102523.75;20491137;28;19928;-60
2023/03/28 13:36:35;;;;;;;;;;;;;;;8.91;62.79;102505.88;20479255;28;19965;-60
2023/03/28 13:46:57;;;;;;;;;;;;;;;8.99;60.73;102488.69;20494880;28;19981;-60
2023/03/28 13:57:19;;;;;;;;;;;;;;;9.00;59.09;102477.50;20510732;28;19930;-61
2023/03/28 14:07:41;;;;;;;;;;;;;;;9.20;59.37;102462.06;20513107;28;19933;-60
2023/03/28 14:18:03;;;;;;;;;;;;;;;9.25;58.28;102438.84;20507958;28;19930;-61
2023/03/28 14:28:26;;;;;;;;;;;;;;;9.39;57.59;102427.66;20509951;28;19928;-60
2023/03/28 14:38:48;;;;;;;;;;;;;;;9.59;61.28;102399.22;20527859;28;19925;-60
2023/03/28 14:49:17;;;;;;;;;;;;;;;9.49;61.21;102382.84;20518006;28;19922;-60
2023/03/28 14:59:43;;;;;;;;;;;;;;;9.59;57.81;102373.38;20515063;28;19922;-61
2023/03/28 15:10:20;;;;;;;;;;;;;;;9.75;58.96;102356.97;20505557;28;19929;-60
2023/03/28 15:20:42;;;;;;;;;;;;;;;10.27;58.67;102337.91;20521142;28;19950;-60
2023/03/28 15:31:04;;;;;;;;;;;;;;;10.59;58.39;102323.03;20514058;28;19922;-60
2023/03/28 15:41:39;;;;;;;;;;;;;;;10.06;60.41;102322.41;20489606;28;20025;-60
2023/03/28 15:52:03;;;;;;;;;;;;;;;9.85;58.07;102320.75;20497651;28;19923;-60
2023/03/28 16:02:25;;;;;;;;;;;;;;;9.74;58.49;102301.81;20485253;28;19926;-60
2023/03/28 16:12:47;;;;;;;;;;;;;;;9.66;56.56;102294.97;20490290;28;19926;-61
2023/03/28 16:23:09;;;;;;;;;;;;;;;9.51;59.74;102282.94;20495262;28;19922;-61
2023/03/28 16:33:31;;;;;;;;;;;;;;;9.29;57.43;102276.09;20493151;28;19923;-59
2023/03/28 16:43:53;;;;;;;;;;;;;;;9.22;56.52;102273.53;20495308;28;19973;-60
2023/03/28 16:54:14;;;;;;;;;;;;;;;9.13;59.32;102252.03;20488720;28;19926;-61
2023/03/28 17:04:35;;;;;;;;;;;;;;;9.11;61.35;102256.34;20479807;28;19978;-60
2023/03/28 17:14:57;;;;;;;;;;;;;;;9.01;58.25;102249.44;20481876;28;19955;-60
2023/03/28 17:25:18;;;;;;;;;;;;;;;8.92;59.75;102239.13;20479241;28;19997;-61
2023/03/28 17:35:40;;;;;;;;;;;;;;;8.80;59.30;102218.50;20499386;28;19989;-61
2023/03/28 17:46:01;;;;;;;;;;;;;;;8.74;60.42;102208.16;20506779;28;19949;-61
2023/03/28 17:56:24;;;;;;;;;;;;;;;8.69;56.86;102199.56;20494327;28;19927;-61
2023/03/28 18:06:45;;;;;;;;;;;;;;;8.63;56.49;102198.69;20488996;28;20297;-60
2023/03/28 18:17:07;;;;;;;;;;;;;;;8.58;61.98;102190.09;20487857;28;19993;-60
2023/03/28 18:27:28;;;;;;;;;;;;;;;8.58;62.95;102187.53;20463386;28;19926;-60
2023/03/28 18:37:50;;;;;;;;;;;;;;;8.56;64.72;102182.38;20491667;28;19926;-60
2023/03/28 18:48:12;;;;;;;;;;;;;;;8.48;58.07;102173.75;20491204;28;20382;-61
2023/03/28 18:58:37;;;;;;;;;;;;;;;8.44;58.52;102181.50;20485999;28;20028;-60
2023/03/28 19:08:59;;;;;;;;;;;;;;;8.41;63.72;102169.47;20492106;28;20370;-61
2023/03/28 19:19:21;;;;;;;;;;;;;;;8.48;63.36;102168.59;20506851;28;19978;-60
2023/03/28 19:29:42;;;;;;;;;;;;;;;8.52;63.46;102153.97;20484321;28;19926;-60
2023/03/28 19:40:08;;;;;;;;;;;;;;;8.52;61.76;102160.00;20485306;28;19926;-60
2023/03/28 19:50:32;;;;;;;;;;;;;;;8.42;61.73;102155.72;20501354;28;19926;-60
2023/03/28 20:00:54;;;;;;;;;;;;;;;8.08;64.39;102171.97;20493119;28;19954;-60
2023/03/28 20:11:16;;;;;;;;;;;;;;;7.63;67.50;102162.41;20493233;28;19926;-61
2023/03/28 20:21:37;;;;;;;;;;;;;;;7.58;67.20;102147.81;20491692;28;19965;-61
2023/03/28 20:31:59;;;;;;;;;;;;;;;7.68;66.86;102128.94;20470081;28;19927;-61
2023/03/28 20:42:21;;;;;;;;;;;;;;;7.68;66.38;102114.34;20491713;28;19933;-61
2023/03/28 20:52:42;;;;;;;;;;;;;;;7.73;66.17;102086.88;20478730;28;20009;-60
2023/03/28 21:03:03;;;;;;;;;;;;;;;7.69;67.11;102099.75;20487239;28;19965;-60
2023/03/28 21:13:25;;;;;;;;;;;;;;;7.76;67.75;102091.19;20475845;28;19923;-61
2023/03/28 21:23:47;;;;;;;;;;;;;;;7.66;66.48;102084.28;20491835;28;20382;-60
2023/03/28 21:34:09;;;;;;;;;;;;;;;7.72;68.02;102068.84;20494623;28;20433;-60
2023/03/28 21:44:30;;;;;;;;;;;;;;;7.76;69.64;102057.69;20489315;28;20006;-60
2023/03/28 21:54:53;;;;;;;;;;;;;;;7.74;70.03;102042.25;20479326;28;19942;-61
2023/03/28 22:05:15;;;;;;;;;;;;;;;7.73;71.13;102029.31;20477603;28;19930;-61
2023/03/28 22:15:51;;;;;;;;;;;;;;;7.71;70.43;102020.78;20499015;28;20367;-61
2023/03/28 22:26:13;;;;;;;;;;;;;;;7.81;69.02;102017.31;20497252;28;20381;-62
2023/03/28 22:36:34;;;;;;;;;;;;;;;7.79;66.11;102009.59;20504741;28;19981;-61
2023/03/28 22:47:01;;;;;;;;;;;;;;;7.75;67.06;101996.69;20508304;28;19996;-61
2023/03/28 22:57:22;;;;;;;;;;;;;;;7.76;67.52;101990.72;20494831;28;19932;-61
2023/03/28 23:07:44;;;;;;;;;;;;;;;7.77;68.24;101980.41;20498468;28;19932;-61
2023/03/28 23:18:06;;;;;;;;;;;;;;;7.73;69.42;101968.38;20503689;28;19926;-61
2023/03/28 23:28:28;;;;;;;;;;;;;;;7.72;68.38;101950.34;20501085;28;19926;-61
2023/03/28 23:38:49;;;;;;;;;;;;;;;7.71;69.04;101936.59;20501054;28;20318;-61
2023/03/28 23:49:11;;;;;;;;;;;;;;;7.72;70.12;101916.84;20501296;28;19926;-61
2023/03/28 23:59:32;;;;;;;;;;;;;;;7.70;69.10;101896.25;20520104;28;19922;-61
